sensor_id;sensor_type;location;lat;lon;timestamp;P1;durP1;ratioP1;P2;durP2;ratioP2
1262;SDS011;62267;50.112;8.704;2023-08-06T00:00:06;6.40;;;5.73;;
1262;SDS011;62267;50.112;8.704;2023-08-06T00:02:35;6.73;;;6.23;;
1262;SDS011;62267;50.112;8.704;2023-08-06T00:05:02;10.17;;;6.03;;
1262;SDS011;62267;50.112;8.704;2023-08-06T00:07:30;8.13;;;6.67;;
1262;SDS011;62267;50.112;8.704;2023-08-06T00:09:58;5.90;;;5.50;;
1262;SDS011;62267;50.112;8.704;2023-08-06T00:12:26;10.10;;;6.87;;
1262;SDS011;62267;50.112;8.704;2023-08-06T00:14:54;7.30;;;6.67;;
1262;SDS011;62267;50.112;8.704;2023-08-06T00:17:21;6.73;;;6.13;;
1262;SDS011;62267;50.112;8.704;2023-08-06T00:19:49;7.20;;;6.60;;
1262;SDS011;62267;50.112;8.704;2023-08-06T00:22:16;8.10;;;6.70;;
1262;SDS011;62267;50.112;8.704;2023-08-06T00:24:44;7.30;;;6.20;;
1262;SDS011;62267;50.112;8.704;2023-08-06T00:27:11;6.50;;;5.90;;
1262;SDS011;62267;50.112;8.704;2023-08-06T00:29:39;7.23;;;6.53;;
1262;SDS011;62267;50.112;8.704;2023-08-06T00:32:06;6.70;;;6.20;;
1262;SDS011;62267;50.112;8.704;2023-08-06T00:34:33;5.63;;;5.27;;
1262;SDS011;62267;50.112;8.704;2023-08-06T00:37:01;8.20;;;7.40;;
1262;SDS011;62267;50.112;8.704;2023-08-06T00:39:29;8.70;;;7.80;;
1262;SDS011;62267;50.112;8.704;2023-08-06T00:41:56;7.23;;;6.50;;
1262;SDS011;62267;50.112;8.704;2023-08-06T00:44:24;6.23;;;5.70;;
1262;SDS011;62267;50.112;8.704;2023-08-06T00:46:52;8.63;;;5.60;;
1262;SDS011;62267;50.112;8.704;2023-08-06T00:49:19;6.70;;;6.20;;
1262;SDS011;62267;50.112;8.704;2023-08-06T00:51:47;7.70;;;6.10;;
1262;SDS011;62267;50.112;8.704;2023-08-06T00:54:15;7.20;;;6.50;;
1262;SDS011;62267;50.112;8.704;2023-08-06T00:56:43;7.40;;;6.20;;
1262;SDS011;62267;50.112;8.704;2023-08-06T00:59:10;6.77;;;6.27;;
1262;SDS011;62267;50.112;8.704;2023-08-06T01:01:39;7.70;;;5.70;;
1262;SDS011;62267;50.112;8.704;2023-08-06T01:04:06;7.30;;;5.80;;
1262;SDS011;62267;50.112;8.704;2023-08-06T01:06:47;7.83;;;6.73;;
1262;SDS011;62267;50.112;8.704;2023-08-06T01:09:21;6.80;;;6.20;;
1262;SDS011;62267;50.112;8.704;2023-08-06T01:11:57;5.93;;;5.50;;
1262;SDS011;62267;50.112;8.704;2023-08-06T01:14:28;7.57;;;6.63;;
1262;SDS011;62267;50.112;8.704;2023-08-06T01:16:58;7.30;;;6.70;;
1262;SDS011;62267;50.112;8.704;2023-08-06T01:19:25;8.23;;;6.20;;
1262;SDS011;62267;50.112;8.704;2023-08-06T01:21:53;7.20;;;6.50;;
1262;SDS011;62267;50.112;8.704;2023-08-06T01:24:20;6.93;;;6.40;;
1262;SDS011;62267;50.112;8.704;2023-08-06T01:26:51;7.07;;;6.47;;
1262;SDS011;62267;50.112;8.704;2023-08-06T01:31:48;6.23;;;5.73;;
1262;SDS011;62267;50.112;8.704;2023-08-06T01:34:24;7.77;;;7.17;;
1262;SDS011;62267;50.112;8.704;2023-08-06T01:36:52;6.67;;;6.20;;
1262;SDS011;62267;50.112;8.704;2023-08-06T01:39:20;6.30;;;5.57;;
1262;SDS011;62267;50.112;8.704;2023-08-06T01:41:48;6.73;;;5.87;;
1262;SDS011;62267;50.112;8.704;2023-08-06T01:44:16;5.90;;;5.47;;
1262;SDS011;62267;50.112;8.704;2023-08-06T01:46:44;6.53;;;5.93;;
1262;SDS011;62267;50.112;8.704;2023-08-06T01:49:11;6.33;;;5.83;;
1262;SDS011;62267;50.112;8.704;2023-08-06T01:51:38;5.80;;;5.37;;
1262;SDS011;62267;50.112;8.704;2023-08-06T01:54:06;9.03;;;5.97;;
1262;SDS011;62267;50.112;8.704;2023-08-06T01:56:33;6.07;;;5.13;;
1262;SDS011;62267;50.112;8.704;2023-08-06T01:59:01;6.67;;;6.07;;
1262;SDS011;62267;50.112;8.704;2023-08-06T02:01:30;5.70;;;5.30;;
1262;SDS011;62267;50.112;8.704;2023-08-06T02:03:58;6.33;;;5.87;;
1262;SDS011;62267;50.112;8.704;2023-08-06T02:06:26;6.10;;;5.60;;
1262;SDS011;62267;50.112;8.704;2023-08-06T02:08:54;6.50;;;5.90;;
1262;SDS011;62267;50.112;8.704;2023-08-06T02:11:21;6.17;;;5.50;;
1262;SDS011;62267;50.112;8.704;2023-08-06T02:13:49;6.87;;;6.03;;
1262;SDS011;62267;50.112;8.704;2023-08-06T02:16:18;5.40;;;5.00;;
1262;SDS011;62267;50.112;8.704;2023-08-06T02:18:45;5.97;;;5.37;;
1262;SDS011;62267;50.112;8.704;2023-08-06T02:21:24;5.90;;;5.50;;
1262;SDS011;62267;50.112;8.704;2023-08-06T02:23:53;5.07;;;4.73;;
1262;SDS011;62267;50.112;8.704;2023-08-06T02:26:20;5.80;;;5.30;;
1262;SDS011;62267;50.112;8.704;2023-08-06T02:28:48;7.47;;;6.10;;
1262;SDS011;62267;50.112;8.704;2023-08-06T02:31:16;5.47;;;4.97;;
1262;SDS011;62267;50.112;8.704;2023-08-06T02:33:43;4.77;;;4.37;;
1262;SDS011;62267;50.112;8.704;2023-08-06T02:36:11;5.13;;;4.73;;
1262;SDS011;62267;50.112;8.704;2023-08-06T02:38:38;5.23;;;4.50;;
1262;SDS011;62267;50.112;8.704;2023-08-06T02:41:05;7.43;;;5.90;;
1262;SDS011;62267;50.112;8.704;2023-08-06T02:43:33;5.40;;;5.00;;
1262;SDS011;62267;50.112;8.704;2023-08-06T02:46:00;6.90;;;5.63;;
1262;SDS011;62267;50.112;8.704;2023-08-06T02:48:28;6.10;;;5.60;;
1262;SDS011;62267;50.112;8.704;2023-08-06T02:50:59;6.50;;;5.30;;
1262;SDS011;62267;50.112;8.704;2023-08-06T02:53:29;5.60;;;5.20;;
1262;SDS011;62267;50.112;8.704;2023-08-06T02:56:01;4.87;;;4.47;;
1262;SDS011;62267;50.112;8.704;2023-08-06T02:58:39;8.10;;;5.93;;
1262;SDS011;62267;50.112;8.704;2023-08-06T03:01:22;5.70;;;4.70;;
1262;SDS011;62267;50.112;8.704;2023-08-06T03:03:57;5.93;;;4.60;;
1262;SDS011;62267;50.112;8.704;2023-08-06T03:06:32;5.43;;;5.03;;
1262;SDS011;62267;50.112;8.704;2023-08-06T03:09:01;5.33;;;4.83;;
1262;SDS011;62267;50.112;8.704;2023-08-06T03:11:29;4.30;;;4.00;;
1262;SDS011;62267;50.112;8.704;2023-08-06T03:14:04;5.10;;;4.57;;
1262;SDS011;62267;50.112;8.704;2023-08-06T03:16:32;5.93;;;5.33;;
1262;SDS011;62267;50.112;8.704;2023-08-06T03:18:59;7.83;;;4.80;;
1262;SDS011;62267;50.112;8.704;2023-08-06T03:21:27;4.93;;;4.47;;
1262;SDS011;62267;50.112;8.704;2023-08-06T03:23:55;5.33;;;4.70;;
1262;SDS011;62267;50.112;8.704;2023-08-06T03:26:26;4.83;;;4.43;;
1262;SDS011;62267;50.112;8.704;2023-08-06T03:28:55;5.80;;;5.20;;
1262;SDS011;62267;50.112;8.704;2023-08-06T03:31:22;8.03;;;5.00;;
1262;SDS011;62267;50.112;8.704;2023-08-06T03:33:50;5.13;;;4.47;;
1262;SDS011;62267;50.112;8.704;2023-08-06T03:36:23;6.40;;;5.90;;
1262;SDS011;62267;50.112;8.704;2023-08-06T03:38:51;6.00;;;4.57;;
1262;SDS011;62267;50.112;8.704;2023-08-06T03:41:18;6.60;;;4.97;;
1262;SDS011;62267;50.112;8.704;2023-08-06T03:43:46;5.30;;;4.77;;
1262;SDS011;62267;50.112;8.704;2023-08-06T03:46:19;5.60;;;4.97;;
1262;SDS011;62267;50.112;8.704;2023-08-06T03:48:47;4.77;;;4.40;;
1262;SDS011;62267;50.112;8.704;2023-08-06T03:51:14;4.50;;;4.20;;
1262;SDS011;62267;50.112;8.704;2023-08-06T03:53:44;4.70;;;4.23;;
1262;SDS011;62267;50.112;8.704;2023-08-06T03:56:11;4.93;;;4.53;;
1262;SDS011;62267;50.112;8.704;2023-08-06T03:58:38;7.40;;;4.00;;
1262;SDS011;62267;50.112;8.704;2023-08-06T04:01:07;5.83;;;4.80;;
1262;SDS011;62267;50.112;8.704;2023-08-06T04:03:41;5.80;;;3.90;;
1262;SDS011;62267;50.112;8.704;2023-08-06T04:06:08;5.00;;;4.60;;
1262;SDS011;62267;50.112;8.704;2023-08-06T04:08:36;4.30;;;3.90;;
1262;SDS011;62267;50.112;8.704;2023-08-06T04:11:03;4.33;;;3.80;;
1262;SDS011;62267;50.112;8.704;2023-08-06T04:13:31;5.17;;;4.07;;
1262;SDS011;62267;50.112;8.704;2023-08-06T04:16:01;3.70;;;3.40;;
1262;SDS011;62267;50.112;8.704;2023-08-06T04:18:30;4.43;;;4.13;;
1262;SDS011;62267;50.112;8.704;2023-08-06T04:20:58;4.90;;;4.00;;
1262;SDS011;62267;50.112;8.704;2023-08-06T04:23:25;4.40;;;4.03;;
1262;SDS011;62267;50.112;8.704;2023-08-06T04:25:56;4.37;;;3.90;;
1262;SDS011;62267;50.112;8.704;2023-08-06T04:28:27;5.20;;;4.43;;
1262;SDS011;62267;50.112;8.704;2023-08-06T04:30:54;3.50;;;3.20;;
1262;SDS011;62267;50.112;8.704;2023-08-06T04:33:22;6.53;;;4.17;;
1262;SDS011;62267;50.112;8.704;2023-08-06T04:35:54;5.00;;;3.80;;
1262;SDS011;62267;50.112;8.704;2023-08-06T04:38:23;4.60;;;4.03;;
1262;SDS011;62267;50.112;8.704;2023-08-06T04:40:52;4.20;;;3.90;;
1262;SDS011;62267;50.112;8.704;2023-08-06T04:43:20;6.10;;;4.10;;
1262;SDS011;62267;50.112;8.704;2023-08-06T04:45:49;4.20;;;3.50;;
1262;SDS011;62267;50.112;8.704;2023-08-06T04:48:17;5.27;;;3.50;;
1262;SDS011;62267;50.112;8.704;2023-08-06T04:50:48;3.30;;;3.00;;
1262;SDS011;62267;50.112;8.704;2023-08-06T04:53:15;4.40;;;3.87;;
1262;SDS011;62267;50.112;8.704;2023-08-06T04:55:44;4.10;;;3.47;;
1262;SDS011;62267;50.112;8.704;2023-08-06T04:58:12;7.73;;;3.13;;
1262;SDS011;62267;50.112;8.704;2023-08-06T05:00:40;4.47;;;4.07;;
1262;SDS011;62267;50.112;8.704;2023-08-06T05:03:08;6.80;;;3.17;;
1262;SDS011;62267;50.112;8.704;2023-08-06T05:05:36;2.80;;;2.60;;
1262;SDS011;62267;50.112;8.704;2023-08-06T05:08:03;4.60;;;3.00;;
1262;SDS011;62267;50.112;8.704;2023-08-06T05:10:30;3.77;;;3.43;;
1262;SDS011;62267;50.112;8.704;2023-08-06T05:12:57;3.90;;;3.37;;
1262;SDS011;62267;50.112;8.704;2023-08-06T05:15:25;5.83;;;3.73;;
1262;SDS011;62267;50.112;8.704;2023-08-06T05:17:52;3.50;;;3.20;;
1262;SDS011;62267;50.112;8.704;2023-08-06T05:20:20;5.90;;;3.20;;
1262;SDS011;62267;50.112;8.704;2023-08-06T05:22:47;3.70;;;3.40;;
1262;SDS011;62267;50.112;8.704;2023-08-06T05:25:14;3.60;;;3.30;;
1262;SDS011;62267;50.112;8.704;2023-08-06T05:27:42;3.97;;;3.37;;
1262;SDS011;62267;50.112;8.704;2023-08-06T05:30:09;3.90;;;3.60;;
1262;SDS011;62267;50.112;8.704;2023-08-06T05:32:37;4.47;;;3.50;;
1262;SDS011;62267;50.112;8.704;2023-08-06T05:35:04;2.90;;;2.70;;
1262;SDS011;62267;50.112;8.704;2023-08-06T05:37:32;3.03;;;2.83;;
1262;SDS011;62267;50.112;8.704;2023-08-06T05:40:01;3.10;;;2.80;;
1262;SDS011;62267;50.112;8.704;2023-08-06T05:42:30;3.10;;;2.90;;
1262;SDS011;62267;50.112;8.704;2023-08-06T05:44:57;3.97;;;3.60;;
1262;SDS011;62267;50.112;8.704;2023-08-06T05:47:24;3.63;;;3.30;;
1262;SDS011;62267;50.112;8.704;2023-08-06T05:49:52;3.23;;;3.03;;
1262;SDS011;62267;50.112;8.704;2023-08-06T05:52:19;3.37;;;3.17;;
1262;SDS011;62267;50.112;8.704;2023-08-06T05:54:46;3.13;;;2.93;;
1262;SDS011;62267;50.112;8.704;2023-08-06T05:57:13;3.13;;;2.83;;
1262;SDS011;62267;50.112;8.704;2023-08-06T05:59:41;3.80;;;3.50;;
1262;SDS011;62267;50.112;8.704;2023-08-06T06:02:08;4.13;;;3.00;;
1262;SDS011;62267;50.112;8.704;2023-08-06T06:04:35;3.23;;;3.00;;
1262;SDS011;62267;50.112;8.704;2023-08-06T06:07:02;3.90;;;3.30;;
1262;SDS011;62267;50.112;8.704;2023-08-06T06:09:31;3.80;;;3.10;;
1262;SDS011;62267;50.112;8.704;2023-08-06T06:11:59;3.20;;;3.00;;
1262;SDS011;62267;50.112;8.704;2023-08-06T06:14:26;3.30;;;3.10;;
1262;SDS011;62267;50.112;8.704;2023-08-06T06:16:53;5.33;;;4.87;;
1262;SDS011;62267;50.112;8.704;2023-08-06T06:19:20;3.37;;;3.07;;
1262;SDS011;62267;50.112;8.704;2023-08-06T06:21:48;3.83;;;3.47;;
1262;SDS011;62267;50.112;8.704;2023-08-06T06:24:15;3.67;;;2.50;;
1262;SDS011;62267;50.112;8.704;2023-08-06T06:26:42;2.43;;;2.33;;
1262;SDS011;62267;50.112;8.704;2023-08-06T06:29:09;2.50;;;2.30;;
1262;SDS011;62267;50.112;8.704;2023-08-06T06:31:37;6.37;;;2.20;;
1262;SDS011;62267;50.112;8.704;2023-08-06T06:34:04;2.23;;;2.13;;
1262;SDS011;62267;50.112;8.704;2023-08-06T06:36:32;2.40;;;2.20;;
1262;SDS011;62267;50.112;8.704;2023-08-06T06:38:59;3.53;;;2.40;;
1262;SDS011;62267;50.112;8.704;2023-08-06T06:41:27;2.13;;;2.03;;
1262;SDS011;62267;50.112;8.704;2023-08-06T06:44:02;2.30;;;2.10;;
1262;SDS011;62267;50.112;8.704;2023-08-06T06:46:29;2.60;;;2.40;;
1262;SDS011;62267;50.112;8.704;2023-08-06T06:48:56;2.20;;;2.00;;
1262;SDS011;62267;50.112;8.704;2023-08-06T06:51:24;2.20;;;2.10;;
1262;SDS011;62267;50.112;8.704;2023-08-06T06:53:51;2.53;;;2.13;;
1262;SDS011;62267;50.112;8.704;2023-08-06T06:56:18;3.23;;;2.40;;
1262;SDS011;62267;50.112;8.704;2023-08-06T06:58:46;2.27;;;2.00;;
1262;SDS011;62267;50.112;8.704;2023-08-06T07:01:13;2.43;;;2.10;;
1262;SDS011;62267;50.112;8.704;2023-08-06T07:03:40;2.10;;;1.90;;
1262;SDS011;62267;50.112;8.704;2023-08-06T07:06:07;2.10;;;1.90;;
1262;SDS011;62267;50.112;8.704;2023-08-06T07:08:35;2.20;;;2.00;;
1262;SDS011;62267;50.112;8.704;2023-08-06T07:11:04;1.90;;;1.80;;
1262;SDS011;62267;50.112;8.704;2023-08-06T07:13:32;2.53;;;2.33;;
1262;SDS011;62267;50.112;8.704;2023-08-06T07:15:59;2.00;;;1.90;;
1262;SDS011;62267;50.112;8.704;2023-08-06T07:18:27;2.13;;;1.93;;
1262;SDS011;62267;50.112;8.704;2023-08-06T07:20:54;2.00;;;1.90;;
1262;SDS011;62267;50.112;8.704;2023-08-06T07:23:23;2.00;;;1.90;;
1262;SDS011;62267;50.112;8.704;2023-08-06T07:25:50;3.00;;;2.70;;
1262;SDS011;62267;50.112;8.704;2023-08-06T07:28:17;2.40;;;2.20;;
1262;SDS011;62267;50.112;8.704;2023-08-06T07:30:46;2.37;;;1.80;;
1262;SDS011;62267;50.112;8.704;2023-08-06T07:33:14;1.73;;;1.63;;
1262;SDS011;62267;50.112;8.704;2023-08-06T07:35:41;1.83;;;1.73;;
1262;SDS011;62267;50.112;8.704;2023-08-06T07:38:12;2.00;;;1.90;;
1262;SDS011;62267;50.112;8.704;2023-08-06T07:40:39;1.73;;;1.63;;
1262;SDS011;62267;50.112;8.704;2023-08-06T07:43:06;3.27;;;2.20;;
1262;SDS011;62267;50.112;8.704;2023-08-06T07:45:36;1.50;;;1.40;;
1262;SDS011;62267;50.112;8.704;2023-08-06T07:48:04;1.70;;;1.60;;
1262;SDS011;62267;50.112;8.704;2023-08-06T07:50:32;1.97;;;1.87;;
1262;SDS011;62267;50.112;8.704;2023-08-06T07:52:59;2.20;;;1.70;;
1262;SDS011;62267;50.112;8.704;2023-08-06T07:55:26;1.63;;;1.53;;
1262;SDS011;62267;50.112;8.704;2023-08-06T07:57:53;1.73;;;1.63;;
1262;SDS011;62267;50.112;8.704;2023-08-06T08:00:21;3.80;;;1.70;;
1262;SDS011;62267;50.112;8.704;2023-08-06T08:02:48;1.70;;;1.60;;
1262;SDS011;62267;50.112;8.704;2023-08-06T08:05:15;1.60;;;1.40;;
1262;SDS011;62267;50.112;8.704;2023-08-06T08:07:43;1.70;;;1.60;;
1262;SDS011;62267;50.112;8.704;2023-08-06T08:10:10;2.33;;;1.83;;
1262;SDS011;62267;50.112;8.704;2023-08-06T08:12:37;2.30;;;1.70;;
1262;SDS011;62267;50.112;8.704;2023-08-06T08:15:05;2.00;;;1.70;;
1262;SDS011;62267;50.112;8.704;2023-08-06T08:17:32;1.83;;;1.73;;
1262;SDS011;62267;50.112;8.704;2023-08-06T08:20:01;1.93;;;1.83;;
1262;SDS011;62267;50.112;8.704;2023-08-06T08:22:28;2.53;;;1.60;;
1262;SDS011;62267;50.112;8.704;2023-08-06T08:24:56;2.90;;;2.00;;
1262;SDS011;62267;50.112;8.704;2023-08-06T08:27:23;2.00;;;1.90;;
1262;SDS011;62267;50.112;8.704;2023-08-06T08:29:51;2.43;;;1.90;;
1262;SDS011;62267;50.112;8.704;2023-08-06T08:32:18;1.90;;;1.80;;
1262;SDS011;62267;50.112;8.704;2023-08-06T08:34:45;1.63;;;1.53;;
1262;SDS011;62267;50.112;8.704;2023-08-06T08:37:13;2.00;;;1.90;;
1262;SDS011;62267;50.112;8.704;2023-08-06T08:39:40;2.40;;;2.20;;
1262;SDS011;62267;50.112;8.704;2023-08-06T08:42:08;1.90;;;1.80;;
1262;SDS011;62267;50.112;8.704;2023-08-06T08:44:36;2.43;;;2.23;;
1262;SDS011;62267;50.112;8.704;2023-08-06T08:47:06;2.63;;;2.43;;
1262;SDS011;62267;50.112;8.704;2023-08-06T08:49:35;2.27;;;1.93;;
1262;SDS011;62267;50.112;8.704;2023-08-06T08:52:03;3.50;;;2.10;;
1262;SDS011;62267;50.112;8.704;2023-08-06T08:54:37;2.17;;;2.07;;
1262;SDS011;62267;50.112;8.704;2023-08-06T08:57:05;2.47;;;2.27;;
1262;SDS011;62267;50.112;8.704;2023-08-06T08:59:33;2.23;;;2.10;;
1262;SDS011;62267;50.112;8.704;2023-08-06T09:02:01;2.10;;;2.00;;
1262;SDS011;62267;50.112;8.704;2023-08-06T09:04:29;2.07;;;1.93;;
1262;SDS011;62267;50.112;8.704;2023-08-06T09:07:01;2.40;;;2.20;;
1262;SDS011;62267;50.112;8.704;2023-08-06T09:09:34;2.03;;;1.93;;
1262;SDS011;62267;50.112;8.704;2023-08-06T09:12:14;2.10;;;1.90;;
1262;SDS011;62267;50.112;8.704;2023-08-06T09:14:42;1.90;;;1.80;;
1262;SDS011;62267;50.112;8.704;2023-08-06T09:17:10;4.80;;;2.20;;
1262;SDS011;62267;50.112;8.704;2023-08-06T09:19:37;3.20;;;3.00;;
1262;SDS011;62267;50.112;8.704;2023-08-06T09:22:12;2.10;;;2.00;;
1262;SDS011;62267;50.112;8.704;2023-08-06T09:24:43;2.80;;;2.60;;
1262;SDS011;62267;50.112;8.704;2023-08-06T09:27:14;2.43;;;2.00;;
1262;SDS011;62267;50.112;8.704;2023-08-06T09:29:42;1.80;;;1.70;;
1262;SDS011;62267;50.112;8.704;2023-08-06T09:32:09;2.03;;;1.93;;
1262;SDS011;62267;50.112;8.704;2023-08-06T09:34:38;1.70;;;1.60;;
1262;SDS011;62267;50.112;8.704;2023-08-06T09:37:05;2.07;;;1.67;;
1262;SDS011;62267;50.112;8.704;2023-08-06T09:39:33;1.73;;;1.63;;
1262;SDS011;62267;50.112;8.704;2023-08-06T09:42:01;2.50;;;1.63;;
1262;SDS011;62267;50.112;8.704;2023-08-06T09:44:29;2.07;;;1.53;;
1262;SDS011;62267;50.112;8.704;2023-08-06T09:46:57;1.90;;;1.70;;
1262;SDS011;62267;50.112;8.704;2023-08-06T09:49:26;2.70;;;2.50;;
1262;SDS011;62267;50.112;8.704;2023-08-06T09:51:54;1.57;;;1.47;;
1262;SDS011;62267;50.112;8.704;2023-08-06T09:54:26;1.90;;;1.70;;
1262;SDS011;62267;50.112;8.704;2023-08-06T09:56:55;1.90;;;1.70;;
1262;SDS011;62267;50.112;8.704;2023-08-06T09:59:22;3.13;;;1.60;;
1262;SDS011;62267;50.112;8.704;2023-08-06T10:01:50;1.97;;;1.53;;
1262;SDS011;62267;50.112;8.704;2023-08-06T10:04:19;1.80;;;1.70;;
1262;SDS011;62267;50.112;8.704;2023-08-06T10:06:51;2.10;;;1.80;;
1262;SDS011;62267;50.112;8.704;2023-08-06T10:09:19;1.80;;;1.70;;
1262;SDS011;62267;50.112;8.704;2023-08-06T10:11:48;1.90;;;1.80;;
1262;SDS011;62267;50.112;8.704;2023-08-06T10:14:27;3.73;;;2.07;;
1262;SDS011;62267;50.112;8.704;2023-08-06T10:16:57;1.70;;;1.60;;
1262;SDS011;62267;50.112;8.704;2023-08-06T10:19:24;2.60;;;2.00;;
1262;SDS011;62267;50.112;8.704;2023-08-06T10:22:08;2.00;;;1.90;;
1262;SDS011;62267;50.112;8.704;2023-08-06T10:27:21;2.37;;;2.17;;
1262;SDS011;62267;50.112;8.704;2023-08-06T10:29:49;2.20;;;2.10;;
1262;SDS011;62267;50.112;8.704;2023-08-06T10:32:16;2.47;;;1.83;;
1262;SDS011;62267;50.112;8.704;2023-08-06T10:34:57;1.57;;;1.50;;
1262;SDS011;62267;50.112;8.704;2023-08-06T10:37:34;1.90;;;1.80;;
1262;SDS011;62267;50.112;8.704;2023-08-06T10:40:02;1.93;;;1.80;;
1262;SDS011;62267;50.112;8.704;2023-08-06T10:42:30;4.60;;;1.90;;
1262;SDS011;62267;50.112;8.704;2023-08-06T10:45:14;2.00;;;1.90;;
1262;SDS011;62267;50.112;8.704;2023-08-06T10:47:42;1.90;;;1.80;;
1262;SDS011;62267;50.112;8.704;2023-08-06T10:50:11;1.97;;;1.87;;
1262;SDS011;62267;50.112;8.704;2023-08-06T10:52:39;1.90;;;1.80;;
1262;SDS011;62267;50.112;8.704;2023-08-06T10:55:07;1.87;;;1.77;;
1262;SDS011;62267;50.112;8.704;2023-08-06T10:57:35;1.70;;;1.60;;
1262;SDS011;62267;50.112;8.704;2023-08-06T11:00:06;2.50;;;2.30;;
1262;SDS011;62267;50.112;8.704;2023-08-06T11:02:42;1.50;;;1.40;;
1262;SDS011;62267;50.112;8.704;2023-08-06T11:05:15;1.70;;;1.60;;
1262;SDS011;62267;50.112;8.704;2023-08-06T11:07:43;2.07;;;1.90;;
1262;SDS011;62267;50.112;8.704;2023-08-06T11:10:11;1.67;;;1.50;;
1262;SDS011;62267;50.112;8.704;2023-08-06T11:12:39;1.57;;;1.47;;
1262;SDS011;62267;50.112;8.704;2023-08-06T11:15:06;1.60;;;1.50;;
1262;SDS011;62267;50.112;8.704;2023-08-06T11:17:34;1.80;;;1.70;;
1262;SDS011;62267;50.112;8.704;2023-08-06T11:20:03;1.93;;;1.83;;
1262;SDS011;62267;50.112;8.704;2023-08-06T11:22:32;3.57;;;1.87;;
1262;SDS011;62267;50.112;8.704;2023-08-06T11:24:59;1.90;;;1.80;;
1262;SDS011;62267;50.112;8.704;2023-08-06T11:27:30;1.60;;;1.50;;
1262;SDS011;62267;50.112;8.704;2023-08-06T11:29:58;1.70;;;1.60;;
1262;SDS011;62267;50.112;8.704;2023-08-06T11:32:25;1.70;;;1.60;;
1262;SDS011;62267;50.112;8.704;2023-08-06T11:34:54;2.10;;;1.73;;
1262;SDS011;62267;50.112;8.704;2023-08-06T11:37:22;1.80;;;1.70;;
1262;SDS011;62267;50.112;8.704;2023-08-06T11:39:52;1.77;;;1.67;;
1262;SDS011;62267;50.112;8.704;2023-08-06T11:42:19;1.70;;;1.60;;
1262;SDS011;62267;50.112;8.704;2023-08-06T11:44:47;1.83;;;1.60;;
1262;SDS011;62267;50.112;8.704;2023-08-06T11:47:16;1.43;;;1.43;;
1262;SDS011;62267;50.112;8.704;2023-08-06T11:49:47;1.97;;;1.77;;
1262;SDS011;62267;50.112;8.704;2023-08-06T11:52:15;1.87;;;1.77;;
1262;SDS011;62267;50.112;8.704;2023-08-06T11:54:45;1.83;;;1.70;;
1262;SDS011;62267;50.112;8.704;2023-08-06T11:57:13;2.60;;;2.07;;
1262;SDS011;62267;50.112;8.704;2023-08-06T11:59:43;1.70;;;1.60;;
1262;SDS011;62267;50.112;8.704;2023-08-06T12:02:10;1.50;;;1.40;;
1262;SDS011;62267;50.112;8.704;2023-08-06T12:04:57;2.10;;;1.90;;
1262;SDS011;62267;50.112;8.704;2023-08-06T12:07:28;2.27;;;1.67;;
1262;SDS011;62267;50.112;8.704;2023-08-06T12:09:56;1.73;;;1.63;;
1262;SDS011;62267;50.112;8.704;2023-08-06T12:12:23;2.00;;;1.90;;
1262;SDS011;62267;50.112;8.704;2023-08-06T12:14:51;2.13;;;1.90;;
1262;SDS011;62267;50.112;8.704;2023-08-06T12:17:18;6.70;;;3.70;;
1262;SDS011;62267;50.112;8.704;2023-08-06T12:19:45;2.00;;;1.87;;
1262;SDS011;62267;50.112;8.704;2023-08-06T12:22:14;2.13;;;2.00;;
1262;SDS011;62267;50.112;8.704;2023-08-06T12:24:44;1.77;;;1.67;;
1262;SDS011;62267;50.112;8.704;2023-08-06T12:27:14;1.97;;;1.87;;
1262;SDS011;62267;50.112;8.704;2023-08-06T12:29:43;2.30;;;2.10;;
1262;SDS011;62267;50.112;8.704;2023-08-06T12:32:10;2.23;;;2.13;;
1262;SDS011;62267;50.112;8.704;2023-08-06T12:34:38;1.90;;;1.80;;
1262;SDS011;62267;50.112;8.704;2023-08-06T12:37:18;1.93;;;1.83;;
1262;SDS011;62267;50.112;8.704;2023-08-06T12:39:45;2.40;;;2.20;;
1262;SDS011;62267;50.112;8.704;2023-08-06T12:42:13;1.90;;;1.80;;
1262;SDS011;62267;50.112;8.704;2023-08-06T12:44:40;2.83;;;2.50;;
1262;SDS011;62267;50.112;8.704;2023-08-06T12:47:08;2.10;;;1.93;;
1262;SDS011;62267;50.112;8.704;2023-08-06T12:49:35;1.80;;;1.70;;
1262;SDS011;62267;50.112;8.704;2023-08-06T12:52:03;1.90;;;1.80;;
1262;SDS011;62267;50.112;8.704;2023-08-06T12:54:32;2.10;;;1.50;;
1262;SDS011;62267;50.112;8.704;2023-08-06T12:57:03;2.40;;;2.07;;
1262;SDS011;62267;50.112;8.704;2023-08-06T12:59:30;1.70;;;1.60;;
1262;SDS011;62267;50.112;8.704;2023-08-06T13:02:02;2.27;;;2.07;;
1262;SDS011;62267;50.112;8.704;2023-08-06T13:04:29;2.10;;;2.00;;
1262;SDS011;62267;50.112;8.704;2023-08-06T13:06:57;2.03;;;1.93;;
1262;SDS011;62267;50.112;8.704;2023-08-06T13:09:24;1.80;;;1.70;;
1262;SDS011;62267;50.112;8.704;2023-08-06T13:11:54;1.67;;;1.57;;
1262;SDS011;62267;50.112;8.704;2023-08-06T13:14:22;1.63;;;1.53;;
1262;SDS011;62267;50.112;8.704;2023-08-06T13:16:49;1.97;;;1.77;;
1262;SDS011;62267;50.112;8.704;2023-08-06T13:19:16;2.27;;;2.03;;
1262;SDS011;62267;50.112;8.704;2023-08-06T13:24:15;1.70;;;1.60;;
1262;SDS011;62267;50.112;8.704;2023-08-06T13:26:42;2.00;;;1.90;;
1262;SDS011;62267;50.112;8.704;2023-08-06T13:29:09;2.77;;;2.10;;
1262;SDS011;62267;50.112;8.704;2023-08-06T13:31:36;2.10;;;1.90;;
1262;SDS011;62267;50.112;8.704;2023-08-06T13:34:04;1.83;;;1.73;;
1262;SDS011;62267;50.112;8.704;2023-08-06T13:36:31;2.00;;;1.83;;
1262;SDS011;62267;50.112;8.704;2023-08-06T13:38:59;1.80;;;1.70;;
1262;SDS011;62267;50.112;8.704;2023-08-06T13:41:27;2.30;;;2.10;;
1262;SDS011;62267;50.112;8.704;2023-08-06T13:43:54;1.93;;;1.50;;
1262;SDS011;62267;50.112;8.704;2023-08-06T13:46:21;1.87;;;1.77;;
1262;SDS011;62267;50.112;8.704;2023-08-06T13:48:49;2.00;;;1.90;;
1262;SDS011;62267;50.112;8.704;2023-08-06T13:51:19;1.70;;;1.60;;
1262;SDS011;62267;50.112;8.704;2023-08-06T13:53:46;1.70;;;1.60;;
1262;SDS011;62267;50.112;8.704;2023-08-06T13:56:13;2.13;;;2.03;;
1262;SDS011;62267;50.112;8.704;2023-08-06T13:58:44;2.17;;;2.00;;
1262;SDS011;62267;50.112;8.704;2023-08-06T14:01:13;2.50;;;2.40;;
1262;SDS011;62267;50.112;8.704;2023-08-06T14:03:40;2.10;;;2.00;;
1262;SDS011;62267;50.112;8.704;2023-08-06T14:06:07;2.90;;;2.10;;
1262;SDS011;62267;50.112;8.704;2023-08-06T14:08:35;2.73;;;2.37;;
1262;SDS011;62267;50.112;8.704;2023-08-06T14:11:02;2.50;;;2.40;;
1262;SDS011;62267;50.112;8.704;2023-08-06T14:13:29;2.30;;;1.90;;
1262;SDS011;62267;50.112;8.704;2023-08-06T14:15:58;2.00;;;1.80;;
1262;SDS011;62267;50.112;8.704;2023-08-06T14:18:26;2.63;;;2.43;;
1262;SDS011;62267;50.112;8.704;2023-08-06T14:20:54;2.50;;;1.93;;
1262;SDS011;62267;50.112;8.704;2023-08-06T14:23:21;1.80;;;1.70;;
1262;SDS011;62267;50.112;8.704;2023-08-06T14:25:49;2.17;;;2.07;;
1262;SDS011;62267;50.112;8.704;2023-08-06T14:28:18;2.00;;;1.90;;
1262;SDS011;62267;50.112;8.704;2023-08-06T14:30:46;2.20;;;2.10;;
1262;SDS011;62267;50.112;8.704;2023-08-06T14:33:13;2.70;;;2.50;;
1262;SDS011;62267;50.112;8.704;2023-08-06T14:35:52;2.00;;;1.90;;
1262;SDS011;62267;50.112;8.704;2023-08-06T14:38:20;2.97;;;2.73;;
1262;SDS011;62267;50.112;8.704;2023-08-06T14:40:47;2.60;;;2.40;;
1262;SDS011;62267;50.112;8.704;2023-08-06T14:43:14;2.07;;;1.97;;
1262;SDS011;62267;50.112;8.704;2023-08-06T14:45:41;2.33;;;2.23;;
1262;SDS011;62267;50.112;8.704;2023-08-06T14:48:09;2.30;;;2.20;;
1262;SDS011;62267;50.112;8.704;2023-08-06T14:50:36;2.10;;;2.00;;
1262;SDS011;62267;50.112;8.704;2023-08-06T14:53:06;3.37;;;2.50;;
1262;SDS011;62267;50.112;8.704;2023-08-06T14:55:34;2.30;;;2.20;;
1262;SDS011;62267;50.112;8.704;2023-08-06T14:58:01;2.20;;;2.07;;
1262;SDS011;62267;50.112;8.704;2023-08-06T15:00:29;2.30;;;2.20;;
1262;SDS011;62267;50.112;8.704;2023-08-06T15:02:58;2.47;;;2.27;;
1262;SDS011;62267;50.112;8.704;2023-08-06T15:05:26;1.90;;;1.80;;
1262;SDS011;62267;50.112;8.704;2023-08-06T15:07:54;2.07;;;1.97;;
1262;SDS011;62267;50.112;8.704;2023-08-06T15:10:21;1.90;;;1.80;;
1262;SDS011;62267;50.112;8.704;2023-08-06T15:12:53;1.80;;;1.70;;
1262;SDS011;62267;50.112;8.704;2023-08-06T15:15:21;2.17;;;1.93;;